sensor_id;sensor_type;location;lat;lon;timestamp;P1;durP1;ratioP1;P2;durP2;ratioP2
5129;SDS011;2583;50.946;6.954;2023-04-21T00:01:22;19.33;;;17.43;;
5129;SDS011;2583;50.946;6.954;2023-04-21T00:03:48;17.20;;;15.60;;
5129;SDS011;2583;50.946;6.954;2023-04-21T00:06:16;18.37;;;16.47;;
5129;SDS011;2583;50.946;6.954;2023-04-21T00:08:48;18.70;;;17.10;;
5129;SDS011;2583;50.946;6.954;2023-04-21T00:11:16;17.60;;;15.80;;
5129;SDS011;2583;50.946;6.954;2023-04-21T00:13:43;18.67;;;16.77;;
5129;SDS011;2583;50.946;6.954;2023-04-21T00:16:10;18.87;;;16.97;;
5129;SDS011;2583;50.946;6.954;2023-04-21T00:18:37;19.43;;;17.43;;
5129;SDS011;2583;50.946;6.954;2023-04-21T00:21:04;18.57;;;16.77;;
5129;SDS011;2583;50.946;6.954;2023-04-21T00:23:31;20.17;;;16.60;;
5129;SDS011;2583;50.946;6.954;2023-04-21T00:25:58;19.37;;;17.37;;
5129;SDS011;2583;50.946;6.954;2023-04-21T00:28:28;19.67;;;17.67;;
5129;SDS011;2583;50.946;6.954;2023-04-21T00:30:54;18.00;;;16.40;;
5129;SDS011;2583;50.946;6.954;2023-04-21T00:33:23;18.03;;;16.33;;
5129;SDS011;2583;50.946;6.954;2023-04-21T00:35:49;20.37;;;18.40;;
5129;SDS011;2583;50.946;6.954;2023-04-21T00:38:16;19.63;;;17.50;;
5129;SDS011;2583;50.946;6.954;2023-04-21T00:40:43;19.27;;;17.03;;
5129;SDS011;2583;50.946;6.954;2023-04-21T00:43:10;21.20;;;17.80;;
5129;SDS011;2583;50.946;6.954;2023-04-21T00:45:36;20.17;;;17.97;;
5129;SDS011;2583;50.946;6.954;2023-04-21T00:48:03;19.17;;;17.03;;
5129;SDS011;2583;50.946;6.954;2023-04-21T00:50:31;20.50;;;18.40;;
5129;SDS011;2583;50.946;6.954;2023-04-21T00:52:58;20.17;;;18.17;;
5129;SDS011;2583;50.946;6.954;2023-04-21T00:55:25;24.13;;;19.63;;
5129;SDS011;2583;50.946;6.954;2023-04-21T00:57:52;19.57;;;17.53;;
5129;SDS011;2583;50.946;6.954;2023-04-21T01:00:21;19.57;;;17.50;;
5129;SDS011;2583;50.946;6.954;2023-04-21T01:02:48;23.53;;;19.90;;
5129;SDS011;2583;50.946;6.954;2023-04-21T01:05:16;20.53;;;18.13;;
5129;SDS011;2583;50.946;6.954;2023-04-21T01:07:43;20.83;;;18.63;;
5129;SDS011;2583;50.946;6.954;2023-04-21T01:10:10;20.30;;;18.30;;
5129;SDS011;2583;50.946;6.954;2023-04-21T01:12:44;19.60;;;17.60;;
5129;SDS011;2583;50.946;6.954;2023-04-21T01:15:12;20.37;;;17.90;;
5129;SDS011;2583;50.946;6.954;2023-04-21T01:17:40;22.30;;;19.20;;
5129;SDS011;2583;50.946;6.954;2023-04-21T01:20:09;21.47;;;19.17;;
5129;SDS011;2583;50.946;6.954;2023-04-21T01:22:39;24.20;;;20.07;;
5129;SDS011;2583;50.946;6.954;2023-04-21T01:25:12;21.90;;;19.53;;
5129;SDS011;2583;50.946;6.954;2023-04-21T01:27:40;22.00;;;19.67;;
5129;SDS011;2583;50.946;6.954;2023-04-21T01:30:07;22.63;;;20.33;;
5129;SDS011;2583;50.946;6.954;2023-04-21T01:32:35;21.20;;;19.10;;
5129;SDS011;2583;50.946;6.954;2023-04-21T01:35:02;21.80;;;19.43;;
5129;SDS011;2583;50.946;6.954;2023-04-21T01:37:30;22.63;;;19.73;;
5129;SDS011;2583;50.946;6.954;2023-04-21T01:39:59;22.43;;;20.03;;
5129;SDS011;2583;50.946;6.954;2023-04-21T01:42:27;20.63;;;18.40;;
5129;SDS011;2583;50.946;6.954;2023-04-21T01:44:55;21.13;;;19.23;;
5129;SDS011;2583;50.946;6.954;2023-04-21T01:47:22;23.53;;;20.67;;
5129;SDS011;2583;50.946;6.954;2023-04-21T01:49:50;21.77;;;19.40;;
5129;SDS011;2583;50.946;6.954;2023-04-21T01:52:18;23.40;;;20.90;;
5129;SDS011;2583;50.946;6.954;2023-04-21T01:54:45;22.77;;;20.10;;
5129;SDS011;2583;50.946;6.954;2023-04-21T01:57:12;23.27;;;20.80;;
5129;SDS011;2583;50.946;6.954;2023-04-21T01:59:39;21.33;;;19.07;;
5129;SDS011;2583;50.946;6.954;2023-04-21T02:02:06;21.60;;;19.37;;
5129;SDS011;2583;50.946;6.954;2023-04-21T02:04:33;23.90;;;20.53;;
5129;SDS011;2583;50.946;6.954;2023-04-21T02:07:01;23.40;;;20.50;;
5129;SDS011;2583;50.946;6.954;2023-04-21T02:09:27;23.50;;;20.20;;
5129;SDS011;2583;50.946;6.954;2023-04-21T02:11:55;22.53;;;20.17;;
5129;SDS011;2583;50.946;6.954;2023-04-21T02:14:25;21.47;;;19.17;;
5129;SDS011;2583;50.946;6.954;2023-04-21T02:16:52;22.40;;;19.73;;
5129;SDS011;2583;50.946;6.954;2023-04-21T02:19:21;22.00;;;19.80;;
5129;SDS011;2583;50.946;6.954;2023-04-21T02:21:48;23.80;;;21.17;;
5129;SDS011;2583;50.946;6.954;2023-04-21T02:24:15;23.43;;;20.93;;
5129;SDS011;2583;50.946;6.954;2023-04-21T02:26:42;22.77;;;20.37;;
5129;SDS011;2583;50.946;6.954;2023-04-21T02:29:08;23.07;;;20.40;;
5129;SDS011;2583;50.946;6.954;2023-04-21T02:31:35;23.23;;;20.73;;
5129;SDS011;2583;50.946;6.954;2023-04-21T02:34:22;23.60;;;21.10;;
5129;SDS011;2583;50.946;6.954;2023-04-21T02:36:49;23.20;;;20.73;;
5129;SDS011;2583;50.946;6.954;2023-04-21T02:39:15;22.50;;;19.67;;
5129;SDS011;2583;50.946;6.954;2023-04-21T02:41:42;24.60;;;20.77;;
5129;SDS011;2583;50.946;6.954;2023-04-21T02:44:09;23.33;;;20.87;;
5129;SDS011;2583;50.946;6.954;2023-04-21T02:46:38;23.57;;;20.77;;
5129;SDS011;2583;50.946;6.954;2023-04-21T02:49:06;24.03;;;21.60;;
5129;SDS011;2583;50.946;6.954;2023-04-21T02:51:33;26.63;;;22.17;;
5129;SDS011;2583;50.946;6.954;2023-04-21T02:54:00;26.50;;;22.47;;
5129;SDS011;2583;50.946;6.954;2023-04-21T02:56:27;25.17;;;22.50;;
5129;SDS011;2583;50.946;6.954;2023-04-21T02:58:53;25.27;;;22.47;;
5129;SDS011;2583;50.946;6.954;2023-04-21T03:01:20;27.70;;;22.60;;
5129;SDS011;2583;50.946;6.954;2023-04-21T03:03:47;28.40;;;23.47;;
5129;SDS011;2583;50.946;6.954;2023-04-21T03:06:14;26.40;;;23.00;;
5129;SDS011;2583;50.946;6.954;2023-04-21T03:08:41;26.67;;;23.07;;
5129;SDS011;2583;50.946;6.954;2023-04-21T03:11:08;27.60;;;24.07;;
5129;SDS011;2583;50.946;6.954;2023-04-21T03:13:35;28.30;;;22.90;;
5129;SDS011;2583;50.946;6.954;2023-04-21T03:16:01;28.00;;;24.40;;
5129;SDS011;2583;50.946;6.954;2023-04-21T03:18:28;30.20;;;22.93;;
5129;SDS011;2583;50.946;6.954;2023-04-21T03:20:58;25.80;;;23.10;;
5129;SDS011;2583;50.946;6.954;2023-04-21T03:23:26;29.80;;;25.23;;
5129;SDS011;2583;50.946;6.954;2023-04-21T03:25:53;28.93;;;25.27;;
5129;SDS011;2583;50.946;6.954;2023-04-21T03:28:20;29.70;;;24.50;;
5129;SDS011;2583;50.946;6.954;2023-04-21T03:30:47;29.87;;;24.97;;
5129;SDS011;2583;50.946;6.954;2023-04-21T03:33:13;33.20;;;26.07;;
5129;SDS011;2583;50.946;6.954;2023-04-21T03:35:40;31.87;;;24.90;;
5129;SDS011;2583;50.946;6.954;2023-04-21T03:38:07;30.97;;;25.70;;
5129;SDS011;2583;50.946;6.954;2023-04-21T03:40:34;30.00;;;24.60;;
5129;SDS011;2583;50.946;6.954;2023-04-21T03:43:00;31.53;;;25.30;;
5129;SDS011;2583;50.946;6.954;2023-04-21T03:45:27;29.70;;;25.57;;
5129;SDS011;2583;50.946;6.954;2023-04-21T03:47:54;31.20;;;25.80;;
5129;SDS011;2583;50.946;6.954;2023-04-21T03:50:22;31.63;;;26.97;;
5129;SDS011;2583;50.946;6.954;2023-04-21T03:52:49;29.77;;;26.23;;
5129;SDS011;2583;50.946;6.954;2023-04-21T03:55:15;32.53;;;26.83;;
5129;SDS011;2583;50.946;6.954;2023-04-21T03:57:42;38.30;;;28.00;;
5129;SDS011;2583;50.946;6.954;2023-04-21T04:00:09;32.47;;;28.50;;
5129;SDS011;2583;50.946;6.954;2023-04-21T04:02:36;32.70;;;28.97;;
5129;SDS011;2583;50.946;6.954;2023-04-21T04:05:04;34.40;;;26.37;;
5129;SDS011;2583;50.946;6.954;2023-04-21T04:07:31;30.37;;;25.77;;
5129;SDS011;2583;50.946;6.954;2023-04-21T04:09:58;32.00;;;27.10;;
5129;SDS011;2583;50.946;6.954;2023-04-21T04:12:25;31.17;;;26.30;;
5129;SDS011;2583;50.946;6.954;2023-04-21T04:14:52;30.93;;;26.07;;
5129;SDS011;2583;50.946;6.954;2023-04-21T04:17:19;32.90;;;26.70;;
5129;SDS011;2583;50.946;6.954;2023-04-21T04:19:46;31.23;;;26.60;;
5129;SDS011;2583;50.946;6.954;2023-04-21T04:22:12;36.23;;;27.47;;
5129;SDS011;2583;50.946;6.954;2023-04-21T04:24:39;35.60;;;27.73;;
5129;SDS011;2583;50.946;6.954;2023-04-21T04:27:06;38.03;;;28.90;;
5129;SDS011;2583;50.946;6.954;2023-04-21T04:29:33;33.90;;;27.70;;
5129;SDS011;2583;50.946;6.954;2023-04-21T04:32:00;36.27;;;28.57;;
5129;SDS011;2583;50.946;6.954;2023-04-21T04:34:29;34.63;;;28.40;;
5129;SDS011;2583;50.946;6.954;2023-04-21T04:36:56;36.70;;;29.17;;
5129;SDS011;2583;50.946;6.954;2023-04-21T04:39:22;33.50;;;27.70;;
5129;SDS011;2583;50.946;6.954;2023-04-21T04:41:50;46.77;;;29.27;;
5129;SDS011;2583;50.946;6.954;2023-04-21T04:44:17;35.77;;;27.57;;
5129;SDS011;2583;50.946;6.954;2023-04-21T04:46:45;33.30;;;27.97;;
5129;SDS011;2583;50.946;6.954;2023-04-21T04:49:12;36.47;;;29.60;;
5129;SDS011;2583;50.946;6.954;2023-04-21T04:51:39;32.80;;;28.37;;
5129;SDS011;2583;50.946;6.954;2023-04-21T04:54:05;37.20;;;28.50;;
5129;SDS011;2583;50.946;6.954;2023-04-21T04:56:32;30.17;;;26.67;;
5129;SDS011;2583;50.946;6.954;2023-04-21T04:58:59;35.43;;;28.50;;
5129;SDS011;2583;50.946;6.954;2023-04-21T05:01:26;36.10;;;29.60;;
5129;SDS011;2583;50.946;6.954;2023-04-21T05:03:56;35.27;;;29.10;;
5129;SDS011;2583;50.946;6.954;2023-04-21T05:06:23;37.00;;;28.60;;
5129;SDS011;2583;50.946;6.954;2023-04-21T05:08:50;36.60;;;27.57;;
5129;SDS011;2583;50.946;6.954;2023-04-21T05:11:17;33.43;;;28.00;;
5129;SDS011;2583;50.946;6.954;2023-04-21T05:13:44;36.33;;;28.43;;
5129;SDS011;2583;50.946;6.954;2023-04-21T05:16:10;34.13;;;27.87;;
5129;SDS011;2583;50.946;6.954;2023-04-21T05:18:37;32.10;;;26.53;;
5129;SDS011;2583;50.946;6.954;2023-04-21T05:21:04;32.80;;;27.27;;
5129;SDS011;2583;50.946;6.954;2023-04-21T05:23:31;31.93;;;25.43;;
5129;SDS011;2583;50.946;6.954;2023-04-21T05:25:58;35.20;;;28.40;;
5129;SDS011;2583;50.946;6.954;2023-04-21T05:28:29;37.20;;;28.23;;
5129;SDS011;2583;50.946;6.954;2023-04-21T05:30:57;34.67;;;28.07;;
5129;SDS011;2583;50.946;6.954;2023-04-21T05:33:23;35.00;;;29.37;;
5129;SDS011;2583;50.946;6.954;2023-04-21T05:35:52;37.00;;;27.33;;
5129;SDS011;2583;50.946;6.954;2023-04-21T05:38:18;33.33;;;27.10;;
5129;SDS011;2583;50.946;6.954;2023-04-21T05:40:51;35.43;;;27.20;;
5129;SDS011;2583;50.946;6.954;2023-04-21T05:43:21;33.93;;;26.67;;
5129;SDS011;2583;50.946;6.954;2023-04-21T05:45:48;35.60;;;27.50;;
5129;SDS011;2583;50.946;6.954;2023-04-21T05:48:15;36.97;;;27.30;;
5129;SDS011;2583;50.946;6.954;2023-04-21T05:50:41;31.80;;;25.97;;
5129;SDS011;2583;50.946;6.954;2023-04-21T05:53:08;35.47;;;28.47;;
5129;SDS011;2583;50.946;6.954;2023-04-21T05:55:35;34.53;;;27.67;;
5129;SDS011;2583;50.946;6.954;2023-04-21T05:58:03;33.50;;;26.40;;
5129;SDS011;2583;50.946;6.954;2023-04-21T06:00:30;33.23;;;26.20;;
5129;SDS011;2583;50.946;6.954;2023-04-21T06:02:57;29.07;;;25.07;;
5129;SDS011;2583;50.946;6.954;2023-04-21T06:05:24;33.53;;;26.90;;
5129;SDS011;2583;50.946;6.954;2023-04-21T06:07:51;38.63;;;27.07;;
5129;SDS011;2583;50.946;6.954;2023-04-21T06:10:20;30.20;;;25.30;;
5129;SDS011;2583;50.946;6.954;2023-04-21T06:12:47;31.97;;;25.50;;
5129;SDS011;2583;50.946;6.954;2023-04-21T06:15:14;37.20;;;25.13;;
5129;SDS011;2583;50.946;6.954;2023-04-21T06:17:41;28.57;;;23.00;;
5129;SDS011;2583;50.946;6.954;2023-04-21T06:20:08;27.27;;;22.93;;
5129;SDS011;2583;50.946;6.954;2023-04-21T06:22:36;28.90;;;24.30;;
5129;SDS011;2583;50.946;6.954;2023-04-21T06:25:03;31.10;;;24.93;;
5129;SDS011;2583;50.946;6.954;2023-04-21T06:27:30;31.20;;;25.10;;
5129;SDS011;2583;50.946;6.954;2023-04-21T06:29:57;28.43;;;23.73;;
5129;SDS011;2583;50.946;6.954;2023-04-21T06:32:24;27.17;;;23.57;;
5129;SDS011;2583;50.946;6.954;2023-04-21T06:34:51;27.30;;;23.20;;
5129;SDS011;2583;50.946;6.954;2023-04-21T06:37:18;26.03;;;21.93;;
5129;SDS011;2583;50.946;6.954;2023-04-21T06:39:45;30.27;;;24.17;;
5129;SDS011;2583;50.946;6.954;2023-04-21T06:42:11;26.50;;;23.20;;
5129;SDS011;2583;50.946;6.954;2023-04-21T06:44:38;27.93;;;22.47;;
5129;SDS011;2583;50.946;6.954;2023-04-21T06:47:05;26.67;;;23.07;;
5129;SDS011;2583;50.946;6.954;2023-04-21T06:49:31;26.43;;;22.00;;
5129;SDS011;2583;50.946;6.954;2023-04-21T06:51:59;26.87;;;22.17;;
5129;SDS011;2583;50.946;6.954;2023-04-21T06:54:26;24.00;;;21.43;;
5129;SDS011;2583;50.946;6.954;2023-04-21T06:56:52;24.80;;;22.23;;
5129;SDS011;2583;50.946;6.954;2023-04-21T06:59:19;25.63;;;20.80;;
5129;SDS011;2583;50.946;6.954;2023-04-21T07:01:46;24.43;;;21.53;;
5129;SDS011;2583;50.946;6.954;2023-04-21T07:04:17;24.17;;;21.60;;
5129;SDS011;2583;50.946;6.954;2023-04-21T07:06:45;23.80;;;20.10;;
5129;SDS011;2583;50.946;6.954;2023-04-21T07:09:12;27.30;;;20.57;;
5129;SDS011;2583;50.946;6.954;2023-04-21T07:11:38;25.23;;;19.40;;
5129;SDS011;2583;50.946;6.954;2023-04-21T07:14:05;30.50;;;21.97;;
5129;SDS011;2583;50.946;6.954;2023-04-21T07:16:32;24.17;;;20.50;;
5129;SDS011;2583;50.946;6.954;2023-04-21T07:18:59;26.60;;;20.70;;
5129;SDS011;2583;50.946;6.954;2023-04-21T07:21:26;23.47;;;20.53;;
5129;SDS011;2583;50.946;6.954;2023-04-21T07:23:53;22.17;;;19.87;;
5129;SDS011;2583;50.946;6.954;2023-04-21T07:26:20;23.03;;;20.53;;
5129;SDS011;2583;50.946;6.954;2023-04-21T07:28:47;22.07;;;19.70;;
5129;SDS011;2583;50.946;6.954;2023-04-21T07:31:15;26.80;;;20.37;;
5129;SDS011;2583;50.946;6.954;2023-04-21T07:33:42;23.93;;;19.00;;
5129;SDS011;2583;50.946;6.954;2023-04-21T07:36:09;27.47;;;20.70;;
5129;SDS011;2583;50.946;6.954;2023-04-21T07:38:36;25.33;;;20.10;;
5129;SDS011;2583;50.946;6.954;2023-04-21T07:41:03;25.77;;;21.00;;
5129;SDS011;2583;50.946;6.954;2023-04-21T07:43:30;31.73;;;20.33;;
5129;SDS011;2583;50.946;6.954;2023-04-21T07:45:57;31.53;;;19.30;;
5129;SDS011;2583;50.946;6.954;2023-04-21T07:48:24;29.10;;;18.83;;
5129;SDS011;2583;50.946;6.954;2023-04-21T07:50:51;59.43;;;22.10;;
5129;SDS011;2583;50.946;6.954;2023-04-21T07:53:18;35.87;;;20.80;;
5129;SDS011;2583;50.946;6.954;2023-04-21T07:55:45;24.87;;;19.53;;
5129;SDS011;2583;50.946;6.954;2023-04-21T07:58:12;23.73;;;19.30;;
5129;SDS011;2583;50.946;6.954;2023-04-21T08:00:39;26.83;;;19.57;;
5129;SDS011;2583;50.946;6.954;2023-04-21T08:03:06;42.63;;;21.63;;
5129;SDS011;2583;50.946;6.954;2023-04-21T08:05:34;32.27;;;20.33;;
5129;SDS011;2583;50.946;6.954;2023-04-21T08:08:06;40.10;;;20.30;;
5129;SDS011;2583;50.946;6.954;2023-04-21T08:10:33;31.53;;;21.00;;
5129;SDS011;2583;50.946;6.954;2023-04-21T08:13:00;166.50;;;28.00;;
5129;SDS011;2583;50.946;6.954;2023-04-21T08:15:28;40.03;;;21.00;;
5129;SDS011;2583;50.946;6.954;2023-04-21T08:17:55;28.43;;;19.33;;
5129;SDS011;2583;50.946;6.954;2023-04-21T08:20:22;33.90;;;20.17;;
5129;SDS011;2583;50.946;6.954;2023-04-21T08:22:49;49.60;;;20.80;;
5129;SDS011;2583;50.946;6.954;2023-04-21T08:25:16;20.30;;;18.20;;
5129;SDS011;2583;50.946;6.954;2023-04-21T08:27:42;28.37;;;17.80;;
5129;SDS011;2583;50.946;6.954;2023-04-21T08:30:10;24.17;;;20.30;;
5129;SDS011;2583;50.946;6.954;2023-04-21T08:32:37;24.07;;;20.57;;
5129;SDS011;2583;50.946;6.954;2023-04-21T08:35:04;47.53;;;19.87;;
5129;SDS011;2583;50.946;6.954;2023-04-21T08:37:31;32.13;;;20.00;;
5129;SDS011;2583;50.946;6.954;2023-04-21T08:40:01;28.53;;;20.63;;
5129;SDS011;2583;50.946;6.954;2023-04-21T08:42:28;22.10;;;19.80;;
5129;SDS011;2583;50.946;6.954;2023-04-21T08:44:55;28.40;;;20.10;;
5129;SDS011;2583;50.946;6.954;2023-04-21T08:47:23;44.07;;;21.10;;
5129;SDS011;2583;50.946;6.954;2023-04-21T08:49:51;215.13;;;27.80;;
5129;SDS011;2583;50.946;6.954;2023-04-21T08:52:19;64.40;;;21.20;;
5129;SDS011;2583;50.946;6.954;2023-04-21T08:54:46;25.53;;;18.83;;
5129;SDS011;2583;50.946;6.954;2023-04-21T08:57:17;33.07;;;19.57;;
5129;SDS011;2583;50.946;6.954;2023-04-21T08:59:44;20.30;;;18.20;;
5129;SDS011;2583;50.946;6.954;2023-04-21T09:02:12;20.30;;;18.30;;
5129;SDS011;2583;50.946;6.954;2023-04-21T09:04:42;46.27;;;20.50;;
5129;SDS011;2583;50.946;6.954;2023-04-21T09:07:31;39.73;;;20.00;;
5129;SDS011;2583;50.946;6.954;2023-04-21T09:09:59;19.07;;;17.37;;
5129;SDS011;2583;50.946;6.954;2023-04-21T09:12:27;18.33;;;16.53;;
5129;SDS011;2583;50.946;6.954;2023-04-21T09:14:54;19.53;;;17.47;;
5129;SDS011;2583;50.946;6.954;2023-04-21T09:17:27;37.77;;;18.07;;
5129;SDS011;2583;50.946;6.954;2023-04-21T09:20:17;19.53;;;16.43;;
5129;SDS011;2583;50.946;6.954;2023-04-21T09:22:49;24.47;;;18.97;;
5129;SDS011;2583;50.946;6.954;2023-04-21T09:25:19;22.43;;;17.83;;
5129;SDS011;2583;50.946;6.954;2023-04-21T09:27:46;25.47;;;17.33;;
5129;SDS011;2583;50.946;6.954;2023-04-21T09:30:17;19.60;;;16.90;;
5129;SDS011;2583;50.946;6.954;2023-04-21T09:32:45;24.33;;;17.43;;
5129;SDS011;2583;50.946;6.954;2023-04-21T09:35:11;18.07;;;16.37;;
5129;SDS011;2583;50.946;6.954;2023-04-21T09:37:38;17.63;;;15.73;;
5129;SDS011;2583;50.946;6.954;2023-04-21T09:40:11;19.70;;;16.70;;
5129;SDS011;2583;50.946;6.954;2023-04-21T09:42:40;18.07;;;16.27;;
5129;SDS011;2583;50.946;6.954;2023-04-21T09:45:10;17.37;;;15.50;;
5129;SDS011;2583;50.946;6.954;2023-04-21T09:47:40;16.73;;;15.03;;
5129;SDS011;2583;50.946;6.954;2023-04-21T09:50:10;15.80;;;14.40;;
5129;SDS011;2583;50.946;6.954;2023-04-21T09:52:38;17.00;;;15.30;;
5129;SDS011;2583;50.946;6.954;2023-04-21T09:55:11;18.30;;;15.30;;
5129;SDS011;2583;50.946;6.954;2023-04-21T09:57:40;16.60;;;15.00;;
5129;SDS011;2583;50.946;6.954;2023-04-21T10:00:08;17.00;;;15.30;;
5129;SDS011;2583;50.946;6.954;2023-04-21T10:02:59;18.73;;;16.63;;
5129;SDS011;2583;50.946;6.954;2023-04-21T10:05:26;15.87;;;14.43;;
5129;SDS011;2583;50.946;6.954;2023-04-21T10:07:54;21.37;;;17.03;;
5129;SDS011;2583;50.946;6.954;2023-04-21T10:12:51;16.63;;;15.03;;
5129;SDS011;2583;50.946;6.954;2023-04-21T10:15:37;16.43;;;14.50;;
5129;SDS011;2583;50.946;6.954;2023-04-21T10:18:12;19.33;;;14.07;;
5129;SDS011;2583;50.946;6.954;2023-04-21T10:26:04;17.63;;;15.73;;
5129;SDS011;2583;50.946;6.954;2023-04-21T10:31:48;17.33;;;15.37;;
5129;SDS011;2583;50.946;6.954;2023-04-21T10:41:55;14.13;;;12.80;;
5129;SDS011;2583;50.946;6.954;2023-04-21T10:44:43;13.23;;;11.83;;
5129;SDS011;2583;50.946;6.954;2023-04-21T10:47:23;12.27;;;11.20;;
5129;SDS011;2583;50.946;6.954;2023-04-21T10:49:58;15.97;;;11.87;;
5129;SDS011;2583;50.946;6.954;2023-04-21T10:52:31;12.47;;;11.27;;
5129;SDS011;2583;50.946;6.954;2023-04-21T10:57:30;15.50;;;12.97;;
5129;SDS011;2583;50.946;6.954;2023-04-21T10:59:59;14.23;;;12.83;;
5129;SDS011;2583;50.946;6.954;2023-04-21T11:02:25;13.90;;;12.47;;
5129;SDS011;2583;50.946;6.954;2023-04-21T11:04:53;13.40;;;12.10;;
5129;SDS011;2583;50.946;6.954;2023-04-21T11:07:21;15.60;;;11.77;;
5129;SDS011;2583;50.946;6.954;2023-04-21T11:09:57;12.73;;;11.53;;
5129;SDS011;2583;50.946;6.954;2023-04-21T11:12:30;11.27;;;10.00;;
5129;SDS011;2583;50.946;6.954;2023-04-21T11:14:57;12.83;;;11.23;;
5129;SDS011;2583;50.946;6.954;2023-04-21T11:17:24;11.23;;;10.33;;
5129;SDS011;2583;50.946;6.954;2023-04-21T11:19:54;12.70;;;10.07;;
5129;SDS011;2583;50.946;6.954;2023-04-21T11:22:23;11.40;;;10.23;;
5129;SDS011;2583;50.946;6.954;2023-04-21T11:24:55;11.07;;;10.10;;
5129;SDS011;2583;50.946;6.954;2023-04-21T11:27:24;10.60;;;9.90;;
5129;SDS011;2583;50.946;6.954;2023-04-21T11:29:52;11.03;;;9.93;;
5129;SDS011;2583;50.946;6.954;2023-04-21T11:32:19;9.77;;;9.17;;
5129;SDS011;2583;50.946;6.954;2023-04-21T11:34:46;9.80;;;9.00;;
5129;SDS011;2583;50.946;6.954;2023-04-21T11:37:14;10.73;;;8.53;;
5129;SDS011;2583;50.946;6.954;2023-04-21T11:39:42;9.40;;;8.40;;
5129;SDS011;2583;50.946;6.954;2023-04-21T11:42:09;9.13;;;8.10;;
5129;SDS011;2583;50.946;6.954;2023-04-21T11:47:19;8.97;;;8.23;;
5129;SDS011;2583;50.946;6.954;2023-04-21T11:49:57;7.73;;;6.93;;
5129;SDS011;2583;50.946;6.954;2023-04-21T11:52:33;7.67;;;6.97;;
5129;SDS011;2583;50.946;6.954;2023-04-21T11:55:10;7.90;;;7.30;;
5129;SDS011;2583;50.946;6.954;2023-04-21T11:57:41;8.67;;;7.67;;
5129;SDS011;2583;50.946;6.954;2023-04-21T12:00:08;8.63;;;6.93;;
5129;SDS011;2583;50.946;6.954;2023-04-21T12:02:41;8.10;;;7.30;;
5129;SDS011;2583;50.946;6.954;2023-04-21T12:07:43;8.90;;;7.70;;
5129;SDS011;2583;50.946;6.954;2023-04-21T12:10:18;9.50;;;8.50;;
5129;SDS011;2583;50.946;6.954;2023-04-21T12:12:46;9.80;;;8.13;;
5129;SDS011;2583;50.946;6.954;2023-04-21T12:15:17;15.83;;;12.47;;
5129;SDS011;2583;50.946;6.954;2023-04-21T12:17:46;16.87;;;8.77;;
5129;SDS011;2583;50.946;6.954;2023-04-21T12:20:14;20.33;;;13.90;;
5129;SDS011;2583;50.946;6.954;2023-04-21T12:22:42;8.40;;;6.90;;
5129;SDS011;2583;50.946;6.954;2023-04-21T12:25:10;8.50;;;7.53;;
5129;SDS011;2583;50.946;6.954;2023-04-21T12:27:37;9.10;;;7.00;;
5129;SDS011;2583;50.946;6.954;2023-04-21T12:30:13;30.03;;;9.03;;
5129;SDS011;2583;50.946;6.954;2023-04-21T12:32:39;9.30;;;8.30;;
5129;SDS011;2583;50.946;6.954;2023-04-21T12:35:06;6.90;;;6.40;;
5129;SDS011;2583;50.946;6.954;2023-04-21T12:37:34;6.70;;;6.30;;
5129;SDS011;2583;50.946;6.954;2023-04-21T12:40:02;7.50;;;6.90;;
5129;SDS011;2583;50.946;6.954;2023-04-21T12:42:29;8.10;;;7.40;;
5129;SDS011;2583;50.946;6.954;2023-04-21T12:44:56;9.10;;;8.40;;
5129;SDS011;2583;50.946;6.954;2023-04-21T12:47:23;8.90;;;8.00;;
5129;SDS011;2583;50.946;6.954;2023-04-21T12:49:50;8.37;;;7.50;;
5129;SDS011;2583;50.946;6.954;2023-04-21T12:52:17;9.23;;;8.33;;
5129;SDS011;2583;50.946;6.954;2023-04-21T12:54:43;9.57;;;8.87;;
5129;SDS011;2583;50.946;6.954;2023-04-21T12:57:10;11.13;;;9.97;;
5129;SDS011;2583;50.946;6.954;2023-04-21T12:59:37;9.17;;;8.47;;
5129;SDS011;2583;50.946;6.954;2023-04-21T13:02:04;8.70;;;8.03;;
5129;SDS011;2583;50.946;6.954;2023-04-21T13:04:32;9.00;;;8.07;;
5129;SDS011;2583;50.946;6.954;2023-04-21T13:06:59;8.93;;;8.13;;
5129;SDS011;2583;50.946;6.954;2023-04-21T13:09:26;8.93;;;8.17;;
5129;SDS011;2583;50.946;6.954;2023-04-21T13:11:53;10.50;;;9.63;;
5129;SDS011;2583;50.946;6.954;2023-04-21T13:14:19;9.70;;;8.90;;
5129;SDS011;2583;50.946;6.954;2023-04-21T13:16:46;8.57;;;7.97;;
5129;SDS011;2583;50.946;6.954;2023-04-21T13:19:13;9.73;;;8.83;;
5129;SDS011;2583;50.946;6.954;2023-04-21T13:21:40;8.77;;;8.10;;
5129;SDS011;2583;50.946;6.954;2023-04-21T13:24:06;8.93;;;8.13;;
5129;SDS011;2583;50.946;6.954;2023-04-21T13:26:35;9.63;;;9.03;;
5129;SDS011;2583;50.946;6.954;2023-04-21T13:29:02;12.43;;;9.27;;
5129;SDS011;2583;50.946;6.954;2023-04-21T13:31:29;9.90;;;9.03;;
5129;SDS011;2583;50.946;6.954;2023-04-21T13:33:58;8.73;;;8.13;;
5129;SDS011;2583;50.946;6.954;2023-04-21T13:36:26;7.30;;;6.70;;
5129;SDS011;2583;50.946;6.954;2023-04-21T13:38:53;8.20;;;7.60;;
5129;SDS011;2583;50.946;6.954;2023-04-21T13:41:21;7.43;;;6.73;;
5129;SDS011;2583;50.946;6.954;2023-04-21T13:43:48;8.13;;;7.37;;
5129;SDS011;2583;50.946;6.954;2023-04-21T13:46:15;8.33;;;7.40;;
5129;SDS011;2583;50.946;6.954;2023-04-21T13:48:43;6.87;;;6.43;;
5129;SDS011;2583;50.946;6.954;2023-04-21T13:51:10;9.47;;;6.80;;
5129;SDS011;2583;50.946;6.954;2023-04-21T13:53:37;20.60;;;8.67;;
5129;SDS011;2583;50.946;6.954;2023-04-21T13:56:04;8.60;;;7.80;;
5129;SDS011;2583;50.946;6.954;2023-04-21T13:58:31;8.20;;;7.50;;
5129;SDS011;2583;50.946;6.954;2023-04-21T14:00:58;7.80;;;7.27;;
5129;SDS011;2583;50.946;6.954;2023-04-21T14:03:24;7.30;;;6.80;;
5129;SDS011;2583;50.946;6.954;2023-04-21T14:05:52;7.60;;;7.10;;
5129;SDS011;2583;50.946;6.954;2023-04-21T14:08:19;7.77;;;7.27;;
5129;SDS011;2583;50.946;6.954;2023-04-21T14:10:45;7.53;;;6.50;;
5129;SDS011;2583;50.946;6.954;2023-04-21T14:13:12;7.40;;;7.00;;
5129;SDS011;2583;50.946;6.954;2023-04-21T14:15:52;7.30;;;6.70;;
5129;SDS011;2583;50.946;6.954;2023-04-21T14:18:19;7.07;;;6.57;;
5129;SDS011;2583;50.946;6.954;2023-04-21T14:20:46;6.30;;;5.33;;
5129;SDS011;2583;50.946;6.954;2023-04-21T14:23:13;6.37;;;5.97;;
5129;SDS011;2583;50.946;6.954;2023-04-21T14:25:40;7.73;;;7.17;;
5129;SDS011;2583;50.946;6.954;2023-04-21T14:28:07;7.10;;;6.60;;
5129;SDS011;2583;50.946;6.954;2023-04-21T14:30:36;6.00;;;5.60;;
5129;SDS011;2583;50.946;6.954;2023-04-21T14:33:03;6.47;;;5.97;;
5129;SDS011;2583;50.946;6.954;2023-04-21T14:35:31;5.50;;;5.20;;
5129;SDS011;2583;50.946;6.954;2023-04-21T14:37:58;6.23;;;5.70;;
5129;SDS011;2583;50.946;6.954;2023-04-21T14:40:25;6.37;;;5.87;;
5129;SDS011;2583;50.946;6.954;2023-04-21T14:42:51;6.10;;;5.70;;
5129;SDS011;2583;50.946;6.954;2023-04-21T14:45:18;6.27;;;5.73;;
5129;SDS011;2583;50.946;6.954;2023-04-21T14:47:45;6.20;;;5.80;;
5129;SDS011;2583;50.946;6.954;2023-04-21T14:50:12;5.13;;;4.80;;
5129;SDS011;2583;50.946;6.954;2023-04-21T14:52:39;8.27;;;5.03;;
5129;SDS011;2583;50.946;6.954;2023-04-21T14:55:06;4.73;;;4.43;;
5129;SDS011;2583;50.946;6.954;2023-04-21T14:57:33;4.90;;;4.50;;
5129;SDS011;2583;50.946;6.954;2023-04-21T14:59:59;5.43;;;4.00;;
5129;SDS011;2583;50.946;6.954;2023-04-21T15:02:27;5.70;;;4.27;;
5129;SDS011;2583;50.946;6.954;2023-04-21T15:04:55;6.50;;;4.43;;
5129;SDS011;2583;50.946;6.954;2023-04-21T15:07:23;5.20;;;4.90;;
5129;SDS011;2583;50.946;6.954;2023-04-21T15:09:50;5.00;;;4.60;;
5129;SDS011;2583;50.946;6.954;2023-04-21T15:12:17;4.40;;;4.20;;
5129;SDS011;2583;50.946;6.954;2023-04-21T15:14:44;4.43;;;4.03;;
5129;SDS011;2583;50.946;6.954;2023-04-21T15:17:11;4.93;;;4.60;;
5129;SDS011;2583;50.946;6.954;2023-04-21T15:19:39;4.93;;;4.57;;
5129;SDS011;2583;50.946;6.954;2023-04-21T15:22:06;5.87;;;3.60;;
5129;SDS011;2583;50.946;6.954;2023-04-21T15:24:33;4.17;;;3.97;;
5129;SDS011;2583;50.946;6.954;2023-04-21T15:27:00;5.07;;;4.00;;